createdAt,value
2019-01-12T00:00:16.421Z,28.80
2019-01-12T00:00:18.644Z,17.60
2019-01-12T00:01:16.443Z,31.90
2019-01-12T00:02:16.441Z,33.90
2019-01-12T00:02:47.235Z,18.60
2019-01-12T00:03:16.457Z,28.60
2019-01-12T00:04:16.554Z,29.80
2019-01-12T00:05:15.318Z,20.00
2019-01-12T00:05:16.687Z,39.40
2019-01-12T00:06:16.499Z,34.10
2019-01-12T00:07:16.517Z,37.30
2019-01-12T00:07:43.803Z,17.83
2019-01-12T00:08:16.580Z,30.50
2019-01-12T00:09:16.616Z,28.10
2019-01-12T00:10:11.645Z,24.13
2019-01-12T00:10:16.573Z,32.10
2019-01-12T00:11:16.625Z,32.20
2019-01-12T00:12:16.603Z,33.80
2019-01-12T00:12:39.506Z,19.50
2019-01-12T00:13:16.634Z,24.90
2019-01-12T00:14:16.648Z,29.80
2019-01-12T00:15:07.581Z,22.73
2019-01-12T00:15:16.648Z,31.90
2019-01-12T00:16:16.669Z,31.20
2019-01-12T00:17:16.716Z,38.30
2019-01-12T00:17:35.657Z,17.83
2019-01-12T00:18:16.705Z,31.80
2019-01-12T00:19:16.715Z,37.60
2019-01-12T00:20:04.342Z,23.17
2019-01-12T00:20:16.730Z,34.10
2019-01-12T00:21:16.758Z,34.10
2019-01-12T00:22:16.761Z,34.60
2019-01-12T00:22:32.125Z,14.93
2019-01-12T00:23:16.780Z,35.00
2019-01-12T00:24:16.813Z,26.60
2019-01-12T00:24:59.889Z,19.90
2019-01-12T00:25:16.818Z,30.50
2019-01-12T00:26:16.842Z,27.60
2019-01-12T00:27:16.863Z,30.80
2019-01-12T00:27:27.942Z,15.33
2019-01-12T00:28:16.862Z,34.30
2019-01-12T00:29:16.896Z,36.00
2019-01-12T00:29:55.808Z,17.77
2019-01-12T00:30:16.905Z,31.70
2019-01-12T00:31:16.922Z,32.60
2019-01-12T00:32:16.947Z,36.20
2019-01-12T00:32:24.079Z,17.17
2019-01-12T00:33:16.995Z,38.00
2019-01-12T00:34:16.958Z,33.10
2019-01-12T00:34:55.007Z,16.07
2019-01-12T00:35:16.973Z,32.50
2019-01-12T00:36:17.040Z,32.50
2019-01-12T00:37:17.018Z,33.30
2019-01-12T00:37:23.091Z,17.17
2019-01-12T00:38:17.023Z,32.70
2019-01-12T00:39:17.050Z,34.00
2019-01-12T00:39:51.148Z,20.13
2019-01-12T00:40:17.060Z,30.30
2019-01-12T00:41:17.078Z,29.50
2019-01-12T00:42:17.112Z,34.70
2019-01-12T00:42:18.999Z,15.00
2019-01-12T00:43:17.111Z,29.80
2019-01-12T00:44:17.135Z,34.70
2019-01-12T00:44:46.691Z,18.27
2019-01-12T00:45:17.138Z,25.20
2019-01-12T00:46:17.158Z,34.50
2019-01-12T00:47:14.550Z,9.10
2019-01-12T00:47:17.170Z,35.00
2019-01-12T00:48:17.196Z,28.30
2019-01-12T00:49:17.200Z,27.90
2019-01-12T00:49:42.298Z,13.47
2019-01-12T00:50:17.220Z,20.40
2019-01-12T00:51:17.357Z,29.10
2019-01-12T00:52:10.274Z,15.17
2019-01-12T00:52:17.283Z,28.00
2019-01-12T00:53:17.275Z,25.40
2019-01-12T00:54:17.305Z,36.00
2019-01-12T00:54:38.694Z,11.53
2019-01-12T00:55:17.328Z,23.10
2019-01-12T00:56:17.334Z,24.40
2019-01-12T00:57:06.599Z,13.00
2019-01-12T00:57:17.373Z,26.80
2019-01-12T00:58:17.359Z,25.80
2019-01-12T00:59:17.391Z,34.00
2019-01-12T00:59:34.735Z,11.90
2019-01-12T01:00:17.389Z,25.20
2019-01-12T01:01:17.410Z,28.10
2019-01-12T01:02:02.755Z,11.67
2019-01-12T01:02:17.489Z,28.80
2019-01-12T01:03:17.440Z,23.30
2019-01-12T01:04:17.450Z,21.30
2019-01-12T01:04:31.044Z,12.50
2019-01-12T01:05:17.506Z,24.20
2019-01-12T01:06:17.485Z,28.80
2019-01-12T01:06:59.152Z,11.30
2019-01-12T01:07:17.545Z,23.40
2019-01-12T01:08:17.507Z,19.30
2019-01-12T01:09:17.554Z,20.40
2019-01-12T01:09:26.869Z,10.27
2019-01-12T01:10:17.546Z,23.10
2019-01-12T01:11:17.583Z,24.50
2019-01-12T01:11:54.474Z,10.43
2019-01-12T01:12:17.729Z,25.00
2019-01-12T01:13:17.608Z,18.30
2019-01-12T01:14:17.640Z,20.20
2019-01-12T01:14:22.670Z,16.90
2019-01-12T01:15:17.646Z,23.30
2019-01-12T01:16:17.644Z,29.90
2019-01-12T01:16:50.676Z,9.37
2019-01-12T01:17:17.659Z,27.20
2019-01-12T01:18:17.677Z,22.30
2019-01-12T01:19:17.723Z,20.50
2019-01-12T01:19:18.968Z,8.07
2019-01-12T01:20:17.715Z,28.60
2019-01-12T01:21:17.756Z,22.90
2019-01-12T01:21:47.621Z,12.37
2019-01-12T01:22:17.754Z,19.80
2019-01-12T01:23:17.758Z,15.70
2019-01-12T01:24:15.340Z,12.60
2019-01-12T01:24:17.785Z,18.80
2019-01-12T01:25:17.819Z,18.20
2019-01-12T01:26:17.822Z,16.90
2019-01-12T01:26:42.835Z,10.43
2019-01-12T01:27:17.829Z,24.80
2019-01-12T01:28:17.865Z,17.40
2019-01-12T01:29:10.815Z,10.33
2019-01-12T01:29:17.855Z,19.50
2019-01-12T01:30:17.873Z,17.00
2019-01-12T01:31:17.908Z,13.10
2019-01-12T01:31:38.778Z,8.93
2019-01-12T01:32:17.935Z,14.80
2019-01-12T01:33:17.936Z,16.40
2019-01-12T01:34:06.766Z,7.57
2019-01-12T01:34:18.045Z,15.50
2019-01-12T01:35:17.959Z,19.70
2019-01-12T01:36:17.968Z,15.10
2019-01-12T01:36:34.344Z,5.13
2019-01-12T01:37:18.000Z,19.80
2019-01-12T01:38:18.001Z,16.00
2019-01-12T01:39:02.269Z,8.83
2019-01-12T01:39:18.042Z,17.30
2019-01-12T01:40:18.048Z,15.90
2019-01-12T01:41:18.058Z,19.60
2019-01-12T01:41:29.916Z,7.77
2019-01-12T01:42:18.067Z,18.30
2019-01-12T01:43:18.086Z,16.60
2019-01-12T01:43:57.696Z,7.80
2019-01-12T01:44:18.128Z,14.90
2019-01-12T01:45:18.125Z,16.30
2019-01-12T01:46:18.140Z,15.00
2019-01-12T01:46:25.681Z,7.13
2019-01-12T01:47:18.162Z,13.50
2019-01-12T01:48:18.188Z,19.10
2019-01-12T01:48:56.798Z,5.33
2019-01-12T01:49:18.213Z,13.50
2019-01-12T01:50:18.207Z,19.40
2019-01-12T01:51:18.243Z,16.10
2019-01-12T01:51:24.575Z,7.80
2019-01-12T01:52:18.254Z,17.20
2019-01-12T01:53:18.255Z,16.80
2019-01-12T01:53:53.041Z,10.97
2019-01-12T01:54:18.273Z,16.10
2019-01-12T01:55:18.309Z,13.50
2019-01-12T01:56:18.295Z,12.30
2019-01-12T01:56:21.008Z,5.40
2019-01-12T01:57:18.314Z,17.70
2019-01-12T01:58:18.337Z,14.20
2019-01-12T01:58:48.899Z,8.33
2019-01-12T01:59:18.347Z,13.60
2019-01-12T02:00:18.391Z,16.20
2019-01-12T02:01:16.818Z,10.80
2019-01-12T02:01:18.404Z,17.60
2019-01-12T02:02:18.419Z,13.10
2019-01-12T02:03:18.409Z,19.10
2019-01-12T02:03:44.587Z,7.57
2019-01-12T02:04:18.477Z,20.50
2019-01-12T02:05:18.442Z,18.60
2019-01-12T02:06:12.479Z,9.30
2019-01-12T02:06:18.517Z,14.50
2019-01-12T02:07:18.486Z,14.30
2019-01-12T02:08:18.498Z,12.80
2019-01-12T02:08:40.444Z,5.70
2019-01-12T02:09:18.518Z,13.30
2019-01-12T02:10:18.556Z,12.20
2019-01-12T02:11:08.714Z,10.73
2019-01-12T02:11:18.550Z,12.20
2019-01-12T02:12:18.557Z,11.80
2019-01-12T02:13:18.587Z,16.30
2019-01-12T02:13:36.691Z,7.07
2019-01-12T02:14:18.653Z,9.80
2019-01-12T02:15:18.647Z,12.80
2019-01-12T02:16:04.862Z,5.60
2019-01-12T02:16:18.640Z,11.50
2019-01-12T02:17:18.640Z,16.70
2019-01-12T02:18:18.656Z,16.20
2019-01-12T02:18:32.631Z,6.53
2019-01-12T02:19:18.669Z,15.30
2019-01-12T02:20:18.690Z,12.40
2019-01-12T02:21:01.610Z,9.57
2019-01-12T02:21:18.709Z,9.90
2019-01-12T02:22:18.768Z,7.50
2019-01-12T02:23:18.797Z,9.10
2019-01-12T02:23:29.894Z,3.60
2019-01-12T02:24:18.756Z,13.00
2019-01-12T02:25:18.790Z,11.70
2019-01-12T02:25:59.402Z,7.23
2019-01-12T02:26:18.814Z,9.50
2019-01-12T02:27:18.834Z,14.50
2019-01-12T02:28:18.821Z,10.30
2019-01-12T02:28:27.252Z,6.13
2019-01-12T02:29:18.957Z,7.30
2019-01-12T02:30:19.008Z,9.90
2019-01-12T02:30:56.245Z,4.93
2019-01-12T02:31:18.882Z,9.70
2019-01-12T02:32:18.906Z,7.30
2019-01-12T02:33:18.903Z,12.90
2019-01-12T02:33:24.569Z,4.80
2019-01-12T02:34:18.921Z,10.70
2019-01-12T02:35:18.936Z,8.80
2019-01-12T02:35:53.366Z,6.00
2019-01-12T02:36:19.053Z,7.80
2019-01-12T02:37:19.131Z,8.30
2019-01-12T02:38:19.345Z,7.70
2019-01-12T02:38:22.230Z,4.33
2019-01-12T02:39:19.048Z,6.10
2019-01-12T02:40:19.114Z,11.60
2019-01-12T02:40:50.896Z,4.37
2019-01-12T02:41:19.594Z,10.70
2019-01-12T02:42:19.078Z,9.80
2019-01-12T02:43:18.484Z,4.00
2019-01-12T02:43:19.069Z,7.40
2019-01-12T02:44:19.078Z,8.00
2019-01-12T02:45:19.110Z,7.60
2019-01-12T02:45:46.640Z,2.40
2019-01-12T02:46:19.145Z,7.90
2019-01-12T02:47:19.156Z,8.90
2019-01-12T02:48:14.582Z,3.13
2019-01-12T02:48:19.170Z,6.80
2019-01-12T02:49:19.331Z,6.00
2019-01-12T02:50:19.198Z,7.20
2019-01-12T02:50:42.965Z,3.40
2019-01-12T02:51:19.201Z,8.50
2019-01-12T02:52:19.274Z,4.30
2019-01-12T02:53:10.618Z,4.77
2019-01-12T02:53:19.347Z,6.70
2019-01-12T02:54:19.263Z,4.30
2019-01-12T02:55:19.262Z,8.10
2019-01-12T02:55:38.383Z,3.77
2019-01-12T02:56:19.281Z,9.30
2019-01-12T02:57:19.303Z,7.10
2019-01-12T02:58:06.350Z,4.10
2019-01-12T02:58:19.331Z,5.40
2019-01-12T02:59:19.335Z,5.80
2019-01-12T03:00:19.349Z,6.40
2019-01-12T03:00:33.939Z,4.43
2019-01-12T03:01:19.374Z,5.50
2019-01-12T03:02:19.377Z,5.30
2019-01-12T03:03:02.012Z,3.87
2019-01-12T03:03:19.417Z,5.20
2019-01-12T03:04:19.454Z,6.70
2019-01-12T03:05:19.447Z,6.50
2019-01-12T03:05:30.071Z,4.97
2019-01-12T03:06:19.554Z,8.10
2019-01-12T03:07:19.481Z,5.00
2019-01-12T03:07:58.420Z,5.53
2019-01-12T03:08:19.478Z,5.50
2019-01-12T03:09:19.491Z,5.50
2019-01-12T03:10:19.513Z,6.10
2019-01-12T03:10:26.361Z,3.73
2019-01-12T03:11:19.527Z,8.20
2019-01-12T03:12:19.544Z,6.70
2019-01-12T03:12:54.182Z,4.47
2019-01-12T03:13:19.569Z,3.70
2019-01-12T03:14:19.590Z,4.40
2019-01-12T03:15:19.616Z,3.50
2019-01-12T03:15:22.284Z,7.20
2019-01-12T03:16:19.617Z,5.80
2019-01-12T03:17:19.772Z,3.80
2019-01-12T03:17:50.058Z,3.67
2019-01-12T03:18:19.660Z,3.50
2019-01-12T03:19:19.656Z,6.30
2019-01-12T03:20:18.361Z,3.47
2019-01-12T03:20:19.689Z,3.90
2019-01-12T03:21:19.698Z,4.10
2019-01-12T03:22:19.721Z,5.00
2019-01-12T03:22:46.069Z,4.33
2019-01-12T03:23:19.723Z,4.20
2019-01-12T03:24:19.735Z,3.80
2019-01-12T03:25:18.546Z,3.63
2019-01-12T03:25:19.814Z,4.30
2019-01-12T03:26:19.778Z,4.60
2019-01-12T03:27:19.799Z,5.70
2019-01-12T03:27:43.749Z,3.30
2019-01-12T03:28:19.799Z,3.30
2019-01-12T03:29:19.823Z,3.20
2019-01-12T03:30:16.101Z,3.30
2019-01-12T03:30:19.971Z,5.80
2019-01-12T03:31:19.870Z,5.20
2019-01-12T03:32:19.887Z,4.00
2019-01-12T03:32:43.873Z,4.10
2019-01-12T03:33:19.905Z,3.00
2019-01-12T03:34:19.907Z,4.30
2019-01-12T03:35:12.829Z,4.47
2019-01-12T03:35:20.000Z,4.60
2019-01-12T03:36:19.930Z,4.40
2019-01-12T03:37:19.959Z,4.40
2019-01-12T03:37:40.933Z,2.97
2019-01-12T03:38:19.980Z,6.80
2019-01-12T03:39:19.986Z,4.50
2019-01-12T03:40:10.293Z,3.83
2019-01-12T03:40:20.014Z,3.30
2019-01-12T03:41:20.070Z,3.90
2019-01-12T03:42:20.030Z,3.50
2019-01-12T03:42:37.854Z,3.93
2019-01-12T03:43:20.091Z,4.20
2019-01-12T03:44:20.077Z,6.50
2019-01-12T03:45:07.159Z,2.80
2019-01-12T03:45:20.080Z,5.00
2019-01-12T03:46:20.120Z,4.60
2019-01-12T03:47:20.123Z,3.60
2019-01-12T03:47:35.482Z,3.30
2019-01-12T03:48:20.134Z,7.20
2019-01-12T03:49:20.154Z,3.10
2019-01-12T03:50:03.930Z,3.07
2019-01-12T03:50:20.173Z,3.80
2019-01-12T03:51:20.187Z,4.40
2019-01-12T03:52:20.191Z,2.30
2019-01-12T03:52:32.014Z,2.47
2019-01-12T03:53:20.217Z,3.60
2019-01-12T03:54:20.227Z,3.60
2019-01-12T03:54:59.948Z,3.23
2019-01-12T03:55:25.352Z,5.40
2019-01-12T03:56:20.265Z,5.60
2019-01-12T03:57:20.287Z,3.30
2019-01-12T03:57:31.317Z,3.20
2019-01-12T03:58:20.309Z,3.00
2019-01-12T03:59:20.398Z,2.30
2019-01-12T03:59:59.447Z,3.43
2019-01-12T04:00:20.378Z,3.80
2019-01-12T04:01:20.357Z,4.90
2019-01-12T04:02:20.357Z,3.20
2019-01-12T04:02:27.016Z,2.50
2019-01-12T04:03:20.388Z,3.10
2019-01-12T04:04:20.408Z,3.10
2019-01-12T04:04:54.722Z,2.20
2019-01-12T04:05:20.412Z,4.50
2019-01-12T04:06:20.477Z,3.50
2019-01-12T04:07:20.449Z,4.20
2019-01-12T04:07:22.625Z,3.00
2019-01-12T04:08:20.531Z,2.30
2019-01-12T04:09:20.499Z,3.50
2019-01-12T04:09:50.544Z,2.27
2019-01-12T04:10:20.603Z,2.80
2019-01-12T04:11:20.503Z,2.30
2019-01-12T04:12:18.517Z,2.23
2019-01-12T04:12:20.527Z,3.80
2019-01-12T04:13:20.613Z,5.40
2019-01-12T04:14:20.554Z,4.20
2019-01-12T04:14:46.108Z,2.70
2019-01-12T04:15:20.576Z,2.90
2019-01-12T04:16:20.609Z,1.80
2019-01-12T04:17:14.023Z,2.00
2019-01-12T04:17:20.628Z,3.40
2019-01-12T04:18:20.628Z,2.60
2019-01-12T04:19:20.666Z,1.80
2019-01-12T04:19:42.497Z,2.13
2019-01-12T04:20:20.660Z,2.40
2019-01-12T04:21:20.697Z,1.90
2019-01-12T04:22:10.232Z,2.10
2019-01-12T04:22:20.696Z,1.60
2019-01-12T04:23:20.712Z,2.50
2019-01-12T04:24:20.722Z,2.60
2019-01-12T04:24:38.158Z,2.60
2019-01-12T04:25:20.751Z,3.40
2019-01-12T04:26:20.758Z,2.60
2019-01-12T04:27:07.833Z,1.77
2019-01-12T04:27:20.777Z,2.10
2019-01-12T04:28:20.790Z,2.40
2019-01-12T04:29:20.805Z,2.00
2019-01-12T04:29:35.619Z,1.60
2019-01-12T04:30:20.831Z,3.20
2019-01-12T04:31:20.837Z,2.00
2019-01-12T04:32:03.296Z,1.83
2019-01-12T04:32:20.867Z,3.30
2019-01-12T04:33:20.904Z,3.10
2019-01-12T04:34:20.910Z,3.60
2019-01-12T04:34:31.036Z,1.50
2019-01-12T04:35:20.926Z,2.00
2019-01-12T04:36:20.958Z,2.90
2019-01-12T04:36:58.878Z,2.00
2019-01-12T04:37:20.938Z,1.80
2019-01-12T04:38:20.963Z,2.10
2019-01-12T04:39:21.027Z,2.30
2019-01-12T04:39:26.549Z,1.43
2019-01-12T04:40:21.020Z,1.90
2019-01-12T04:41:21.042Z,1.50
2019-01-12T04:41:54.243Z,2.07
2019-01-12T04:42:21.038Z,2.70
2019-01-12T04:43:21.045Z,3.70
2019-01-12T04:44:21.102Z,2.30
2019-01-12T04:44:22.617Z,1.63
2019-01-12T04:45:21.070Z,2.80
2019-01-12T04:46:21.093Z,2.00
2019-01-12T04:46:50.756Z,1.80
2019-01-12T04:47:21.108Z,2.70
2019-01-12T04:48:21.119Z,3.00
2019-01-12T04:49:18.924Z,3.30
2019-01-12T04:49:21.136Z,4.00
2019-01-12T04:50:21.158Z,2.90
2019-01-12T04:51:21.169Z,1.70
2019-01-12T04:51:47.003Z,2.07
2019-01-12T04:52:21.201Z,4.20
2019-01-12T04:53:21.207Z,3.30
2019-01-12T04:54:15.183Z,1.73
2019-01-12T04:54:21.324Z,2.20
2019-01-12T04:55:21.261Z,1.90
2019-01-12T04:56:21.319Z,2.80
2019-01-12T04:56:43.342Z,2.20
2019-01-12T04:57:21.278Z,3.90
2019-01-12T04:58:21.297Z,2.80
2019-01-12T04:59:13.953Z,2.57
2019-01-12T04:59:21.312Z,2.50
2019-01-12T05:00:21.325Z,4.20
2019-01-12T05:01:21.344Z,3.60
2019-01-12T05:01:41.979Z,3.03
2019-01-12T05:02:21.364Z,2.10
2019-01-12T05:03:21.393Z,3.10
2019-01-12T05:04:10.329Z,3.53
2019-01-12T05:04:21.403Z,5.50
2019-01-12T05:05:21.446Z,3.70
2019-01-12T05:06:21.438Z,3.80
2019-01-12T05:06:38.183Z,2.20
2019-01-12T05:07:21.432Z,3.80
2019-01-12T05:08:21.479Z,2.90
2019-01-12T05:09:06.920Z,2.07
2019-01-12T05:09:21.519Z,2.90
2019-01-12T05:10:21.485Z,2.70
2019-01-12T05:11:21.522Z,4.00
2019-01-12T05:11:34.624Z,5.77
2019-01-12T05:12:21.541Z,5.40
2019-01-12T05:13:21.559Z,3.50
2019-01-12T05:14:02.600Z,3.53
2019-01-12T05:14:21.546Z,2.70
2019-01-12T05:15:21.613Z,3.00
2019-01-12T05:16:21.603Z,6.50
2019-01-12T05:16:30.662Z,2.77
2019-01-12T05:17:21.734Z,3.80
2019-01-12T05:18:21.629Z,5.00
2019-01-12T05:18:58.745Z,3.07
2019-01-12T05:19:21.642Z,3.50
2019-01-12T05:20:21.650Z,2.40
2019-01-12T05:21:21.659Z,3.40
2019-01-12T05:21:26.920Z,2.37
2019-01-12T05:22:21.682Z,3.00
2019-01-12T05:23:21.721Z,3.90
2019-01-12T05:23:55.226Z,2.93
2019-01-12T05:24:21.772Z,4.30
2019-01-12T05:25:21.742Z,3.70
2019-01-12T05:26:21.746Z,4.70
2019-01-12T05:26:23.670Z,3.23
2019-01-12T05:27:21.760Z,3.40
2019-01-12T05:28:21.777Z,6.40
2019-01-12T05:28:52.315Z,2.87
2019-01-12T05:29:21.794Z,3.50
2019-01-12T05:30:21.811Z,2.70
2019-01-12T05:31:19.909Z,2.17
2019-01-12T05:31:21.830Z,3.70
2019-01-12T05:32:21.876Z,3.20
2019-01-12T05:33:21.869Z,4.20
2019-01-12T05:33:47.921Z,1.90
2019-01-12T05:34:21.885Z,4.10
2019-01-12T05:35:21.904Z,5.10
2019-01-12T05:36:15.949Z,1.70
2019-01-12T05:36:21.946Z,2.20
2019-01-12T05:37:21.938Z,4.30
2019-01-12T05:38:21.953Z,2.40
2019-01-12T05:38:43.809Z,1.80
2019-01-12T05:39:21.952Z,3.20
2019-01-12T05:40:21.985Z,3.70
2019-01-12T05:41:11.565Z,2.37
2019-01-12T05:41:21.989Z,2.80
2019-01-12T05:42:22.009Z,3.50
2019-01-12T05:43:22.082Z,3.90
2019-01-12T05:43:39.419Z,2.53
2019-01-12T05:44:22.037Z,3.60
2019-01-12T05:45:22.122Z,3.70
2019-01-12T05:46:07.613Z,3.43
2019-01-12T05:46:22.110Z,2.20
2019-01-12T05:47:22.099Z,2.10
2019-01-12T05:48:22.099Z,2.10
2019-01-12T05:48:35.270Z,2.40
2019-01-12T05:49:22.118Z,1.90
2019-01-12T05:50:22.192Z,2.50
2019-01-12T05:51:02.946Z,2.13
2019-01-12T05:51:22.153Z,2.60
2019-01-12T05:52:22.185Z,3.40
2019-01-12T05:53:22.189Z,2.30
2019-01-12T05:53:30.588Z,2.87
2019-01-12T05:54:22.226Z,2.20
2019-01-12T05:55:22.235Z,1.60
2019-01-12T05:55:59.281Z,1.77
2019-01-12T05:56:22.247Z,4.10
2019-01-12T05:57:22.256Z,1.50
2019-01-12T05:58:22.301Z,2.60
2019-01-12T05:58:27.584Z,2.90
2019-01-12T05:59:22.302Z,3.40
2019-01-12T06:00:22.291Z,1.60
2019-01-12T06:00:55.237Z,1.40
2019-01-12T06:01:22.308Z,1.60
2019-01-12T06:02:22.362Z,2.10
2019-01-12T06:03:22.346Z,3.00
2019-01-12T06:03:23.181Z,1.93
2019-01-12T06:04:22.381Z,1.70
2019-01-12T06:05:22.373Z,1.80
2019-01-12T06:05:50.832Z,2.03
2019-01-12T06:06:22.412Z,2.80
2019-01-12T06:07:22.495Z,2.00
2019-01-12T06:08:18.933Z,2.47
2019-01-12T06:08:22.464Z,2.90
2019-01-12T06:09:22.441Z,2.90
2019-01-12T06:10:22.471Z,1.90
2019-01-12T06:10:47.075Z,2.10
2019-01-12T06:11:22.497Z,3.60
2019-01-12T06:12:22.488Z,2.30
2019-01-12T06:13:15.559Z,3.83
2019-01-12T06:13:22.511Z,2.80
2019-01-12T06:14:22.531Z,2.30
2019-01-12T06:15:22.539Z,2.40
2019-01-12T06:15:43.351Z,4.90
2019-01-12T06:16:22.571Z,3.30
2019-01-12T06:17:22.594Z,2.70
2019-01-12T06:18:11.295Z,2.10
2019-01-12T06:18:22.585Z,5.20
2019-01-12T06:19:22.616Z,3.20
2019-01-12T06:20:22.626Z,2.40
2019-01-12T06:20:39.490Z,2.40
2019-01-12T06:21:22.641Z,5.20
2019-01-12T06:22:22.679Z,4.80
2019-01-12T06:23:22.795Z,3.80
2019-01-12T06:23:26.887Z,2.20
2019-01-12T06:24:22.693Z,3.80
2019-01-12T06:25:22.752Z,4.80
2019-01-12T06:25:54.747Z,3.63
2019-01-12T06:26:22.781Z,4.50
2019-01-12T06:27:22.731Z,3.40
2019-01-12T06:28:22.436Z,3.70
2019-01-12T06:28:22.764Z,5.70
2019-01-12T06:29:22.759Z,4.80
2019-01-12T06:30:22.796Z,25.80
2019-01-12T06:30:50.205Z,4.77
2019-01-12T06:31:22.810Z,12.90
2019-01-12T06:32:22.817Z,6.90
2019-01-12T06:33:17.938Z,6.73
2019-01-12T06:33:22.831Z,2.90
2019-01-12T06:34:22.950Z,3.80
2019-01-12T06:35:22.869Z,5.60
2019-01-12T06:35:45.809Z,2.57
2019-01-12T06:36:22.882Z,4.10
2019-01-12T06:37:22.893Z,5.50
2019-01-12T06:38:13.558Z,3.57
2019-01-12T06:38:22.915Z,7.30
2019-01-12T06:39:22.930Z,3.70
2019-01-12T06:40:22.971Z,4.90
2019-01-12T06:40:41.610Z,4.37
2019-01-12T06:41:22.965Z,5.80
2019-01-12T06:42:23.010Z,5.60
2019-01-12T06:43:09.602Z,2.90
2019-01-12T06:43:23.010Z,4.30
2019-01-12T06:44:23.023Z,3.10
2019-01-12T06:45:23.031Z,3.80
2019-01-12T06:45:37.610Z,3.27
2019-01-12T06:46:23.042Z,6.10
2019-01-12T06:47:23.073Z,10.70
2019-01-12T06:48:05.334Z,4.87
2019-01-12T06:48:23.092Z,8.20
2019-01-12T06:49:23.090Z,15.90
2019-01-12T06:50:23.116Z,10.10
2019-01-12T06:50:33.599Z,50.20
2019-01-12T06:51:23.120Z,70.20
2019-01-12T06:52:23.140Z,15.00
2019-01-12T06:53:01.725Z,8.13
2019-01-12T06:53:23.265Z,9.20
2019-01-12T06:54:23.184Z,17.10
2019-01-12T06:55:23.303Z,12.80
2019-01-12T06:55:29.540Z,11.17
2019-01-12T06:56:23.219Z,15.60
2019-01-12T06:57:23.224Z,10.20
2019-01-12T06:57:57.843Z,7.20
2019-01-12T06:58:23.239Z,8.10
2019-01-12T06:59:23.288Z,15.60
2019-01-12T07:00:23.270Z,15.60
2019-01-12T07:00:26.196Z,4.67
2019-01-12T07:01:23.301Z,12.50
2019-01-12T07:02:23.313Z,18.10
2019-01-12T07:02:57.100Z,5.83
2019-01-12T07:03:23.348Z,7.90
2019-01-12T07:04:23.604Z,8.80
2019-01-12T07:05:23.397Z,12.10
2019-01-12T07:05:25.380Z,3.93
2019-01-12T07:06:23.463Z,9.20
2019-01-12T07:07:23.390Z,10.30
2019-01-12T07:07:53.191Z,3.30
2019-01-12T07:08:23.406Z,7.70
2019-01-12T07:09:23.417Z,13.50
2019-01-12T07:10:21.244Z,13.77
2019-01-12T07:10:23.443Z,18.40
2019-01-12T07:11:23.446Z,22.00
2019-01-12T07:12:23.562Z,26.00
2019-01-12T07:12:49.159Z,9.07
2019-01-12T07:13:23.477Z,31.80
2019-01-12T07:14:23.513Z,14.90
2019-01-12T07:15:17.290Z,6.10
2019-01-12T07:15:23.561Z,13.80
2019-01-12T07:16:23.541Z,11.40
2019-01-12T07:17:23.550Z,19.90
2019-01-12T07:17:45.278Z,5.43
2019-01-12T07:18:23.562Z,9.70
2019-01-12T07:19:23.606Z,8.90
2019-01-12T07:20:14.244Z,5.90
2019-01-12T07:20:23.593Z,7.20
2019-01-12T07:21:23.630Z,8.30
2019-01-12T07:22:23.641Z,13.50
2019-01-12T07:22:41.918Z,14.00
2019-01-12T07:23:23.734Z,6.00
2019-01-12T07:24:23.665Z,15.70
2019-01-12T07:25:10.107Z,4.87
2019-01-12T07:25:23.810Z,11.50
2019-01-12T07:26:23.711Z,8.10
2019-01-12T07:27:23.717Z,4.10
2019-01-12T07:27:38.241Z,2.67
2019-01-12T07:28:23.729Z,4.50
2019-01-12T07:29:23.778Z,7.80
2019-01-12T07:30:09.561Z,3.20
2019-01-12T07:30:23.766Z,8.30
2019-01-12T07:31:23.810Z,10.50
2019-01-12T07:32:23.788Z,8.20
2019-01-12T07:32:37.460Z,4.03
2019-01-12T07:33:23.811Z,10.30
2019-01-12T07:34:23.838Z,7.40
2019-01-12T07:35:05.445Z,3.23
2019-01-12T07:35:23.838Z,6.60
2019-01-12T07:36:23.873Z,3.20
2019-01-12T07:37:23.876Z,3.60
2019-01-12T07:37:33.289Z,4.20
2019-01-12T07:38:23.900Z,4.50
2019-01-12T07:39:23.995Z,5.10
2019-01-12T07:40:01.950Z,3.40
2019-01-12T07:40:23.922Z,3.60
2019-01-12T07:41:23.956Z,3.60
2019-01-12T07:42:23.954Z,6.70
2019-01-12T07:42:29.607Z,4.43
2019-01-12T07:43:24.000Z,4.60
2019-01-12T07:44:24.034Z,6.00
2019-01-12T07:44:57.908Z,2.90
2019-01-12T07:45:24.022Z,5.10
2019-01-12T07:46:24.054Z,3.70
2019-01-12T07:47:24.040Z,3.80
2019-01-12T07:47:25.515Z,3.97
2019-01-12T07:48:24.052Z,3.40
2019-01-12T07:49:24.105Z,7.40
2019-01-12T07:49:53.024Z,3.33
2019-01-12T07:50:24.097Z,10.10
2019-01-12T07:51:24.211Z,3.70
2019-01-12T07:52:23.349Z,3.23
2019-01-12T07:52:24.121Z,5.40
2019-01-12T07:53:24.128Z,4.20
2019-01-12T07:54:24.200Z,4.70
2019-01-12T07:54:51.518Z,3.90
2019-01-12T07:55:24.217Z,4.30
2019-01-12T07:56:24.764Z,6.70
2019-01-12T07:57:19.791Z,5.50
2019-01-12T07:57:24.206Z,6.40
2019-01-12T07:58:24.215Z,6.50
2019-01-12T07:59:24.234Z,4.10
2019-01-12T07:59:47.807Z,7.03
2019-01-12T08:00:24.251Z,14.00
2019-01-12T08:01:24.273Z,9.80
2019-01-12T08:02:18.698Z,16.80
2019-01-12T08:02:24.277Z,11.30
2019-01-12T08:03:24.308Z,20.80
2019-01-12T08:04:24.324Z,5.50
2019-01-12T08:04:51.201Z,4.47
2019-01-12T08:05:24.332Z,5.00
2019-01-12T08:06:24.337Z,4.80
2019-01-12T08:07:19.396Z,5.27
2019-01-12T08:07:24.361Z,6.80
2019-01-12T08:08:24.383Z,4.20
2019-01-12T08:09:24.384Z,6.50
2019-01-12T08:09:47.720Z,5.60
2019-01-12T08:10:24.409Z,5.60
2019-01-12T08:11:24.447Z,6.20
2019-01-12T08:12:15.796Z,4.77
2019-01-12T08:12:24.488Z,4.40
2019-01-12T08:13:24.470Z,6.80
2019-01-12T08:14:24.476Z,5.20
2019-01-12T08:14:43.988Z,5.77
2019-01-12T08:15:24.511Z,7.20
2019-01-12T08:16:24.502Z,8.00
2019-01-12T08:17:12.454Z,5.93
2019-01-12T08:17:24.524Z,6.20
2019-01-12T08:18:24.537Z,5.90
2019-01-12T08:19:24.592Z,8.60
2019-01-12T08:19:40.291Z,6.27
2019-01-12T08:20:24.602Z,7.20
2019-01-12T08:21:24.602Z,7.20
2019-01-12T08:22:08.182Z,8.23
2019-01-12T08:22:24.668Z,7.90
2019-01-12T08:23:24.611Z,8.90
2019-01-12T08:24:24.631Z,8.80
2019-01-12T08:24:35.858Z,6.93
2019-01-12T08:25:24.659Z,6.70
2019-01-12T08:26:30.947Z,6.30
2019-01-12T08:27:03.905Z,6.57
2019-01-12T08:27:24.728Z,7.10
2019-01-12T08:28:24.698Z,5.70
2019-01-12T08:29:24.748Z,5.50
2019-01-12T08:29:32.090Z,8.30
2019-01-12T08:30:24.733Z,8.40
2019-01-12T08:31:24.769Z,8.10
2019-01-12T08:32:00.149Z,6.23
2019-01-12T08:32:24.827Z,7.00
2019-01-12T08:33:24.774Z,6.00
2019-01-12T08:34:24.806Z,8.00
2019-01-12T08:34:28.735Z,5.97
2019-01-12T08:35:24.864Z,8.00
2019-01-12T08:36:24.823Z,9.40
2019-01-12T08:36:56.619Z,6.23
2019-01-12T08:37:24.882Z,9.60
2019-01-12T08:38:24.880Z,5.30
2019-01-12T08:39:24.463Z,5.57
2019-01-12T08:39:24.878Z,5.80
2019-01-12T08:40:24.894Z,7.10
2019-01-12T08:41:24.914Z,6.60
2019-01-12T08:41:52.325Z,6.53
2019-01-12T08:42:24.920Z,7.50
2019-01-12T08:43:24.928Z,7.50
2019-01-12T08:44:20.721Z,6.33
2019-01-12T08:44:25.060Z,8.40
2019-01-12T08:45:24.964Z,7.80
2019-01-12T08:46:24.981Z,8.40
2019-01-12T08:46:48.413Z,6.27
2019-01-12T08:47:24.997Z,8.70
2019-01-12T08:48:25.017Z,7.50
2019-01-12T08:49:16.237Z,9.90
2019-01-12T08:49:25.041Z,8.80
2019-01-12T08:50:25.055Z,15.90
2019-01-12T08:51:25.062Z,12.60
2019-01-12T08:51:44.701Z,8.03
2019-01-12T08:52:25.079Z,10.10
2019-01-12T08:53:25.108Z,12.80
2019-01-12T08:54:12.606Z,7.90
2019-01-12T08:54:25.114Z,11.40
2019-01-12T08:55:25.135Z,8.80
2019-01-12T08:56:25.150Z,10.80
2019-01-12T08:56:40.655Z,8.33
2019-01-12T08:57:25.173Z,7.90
2019-01-12T08:58:25.328Z,10.90
2019-01-12T08:59:08.772Z,9.20
2019-01-12T08:59:25.215Z,11.70
2019-01-12T09:00:25.216Z,8.60
2019-01-12T09:01:25.288Z,9.60
2019-01-12T09:01:36.659Z,9.67
2019-01-12T09:02:25.238Z,9.90
2019-01-12T09:03:25.272Z,9.10
2019-01-12T09:04:05.329Z,9.77
2019-01-12T09:04:25.281Z,12.80
2019-01-12T09:05:25.288Z,11.40
2019-01-12T09:06:25.361Z,12.60
2019-01-12T09:06:34.434Z,9.00
2019-01-12T09:07:25.333Z,10.80
2019-01-12T09:08:25.446Z,11.20
2019-01-12T09:09:02.371Z,9.83
2019-01-12T09:09:25.365Z,10.60
2019-01-12T09:10:25.384Z,10.10
2019-01-12T09:11:25.391Z,12.50
2019-01-12T09:11:29.919Z,12.07
2019-01-12T09:12:25.397Z,15.20
2019-01-12T09:13:25.446Z,10.60
2019-01-12T09:13:58.058Z,10.90
2019-01-12T09:14:25.464Z,13.90
2019-01-12T09:15:25.457Z,11.70
2019-01-12T09:16:25.467Z,10.00
2019-01-12T09:16:26.440Z,9.90
2019-01-12T09:17:25.485Z,11.10
2019-01-12T09:18:25.491Z,13.20
2019-01-12T09:18:54.298Z,10.73
2019-01-12T09:19:25.553Z,15.40
2019-01-12T09:20:25.521Z,11.80
2019-01-12T09:21:22.594Z,12.00
2019-01-12T09:21:25.557Z,13.30